createdAt,value
2022-08-28T00:00:17.234Z,95.7
2022-08-28T00:01:16.646Z,95.4
2022-08-28T00:02:16.643Z,95.4
2022-08-28T00:03:17.695Z,95.6
2022-08-28T00:04:17.261Z,95.6
2022-08-28T00:05:16.712Z,95.6
2022-08-28T00:06:17.158Z,95.7
2022-08-28T00:07:16.628Z,95.7
2022-08-28T00:08:17.079Z,95.7
2022-08-28T00:09:16.557Z,95.7
2022-08-28T00:10:17.062Z,95.8
2022-08-28T00:11:16.587Z,95.8
2022-08-28T00:12:17.030Z,95.8
2022-08-28T00:13:16.506Z,95.8
2022-08-28T00:14:16.947Z,95.8
2022-08-28T00:15:17.422Z,95.8
2022-08-28T00:16:16.930Z,95.8
2022-08-28T00:17:17.597Z,95.8
2022-08-28T00:18:17.026Z,95.7
2022-08-28T00:19:16.450Z,95.8
2022-08-28T00:20:16.892Z,95.9
2022-08-28T00:21:17.306Z,95.8
2022-08-28T00:22:17.069Z,95.8
2022-08-28T00:23:16.509Z,95.9
2022-08-28T00:24:16.943Z,95.8
2022-08-28T00:25:17.402Z,95.9
2022-08-28T00:26:16.875Z,95.9
2022-08-28T00:27:18.703Z,95.8
2022-08-28T00:28:24.679Z,95.8
2022-08-28T00:29:17.154Z,95.6
2022-08-28T00:30:16.617Z,95.7
2022-08-28T00:31:17.162Z,95.9
2022-08-28T00:32:16.560Z,95.8
2022-08-28T00:33:17.047Z,95.9
2022-08-28T00:34:16.473Z,96.0
2022-08-28T00:35:16.896Z,96.0
2022-08-28T00:36:17.301Z,96.0
2022-08-28T00:37:16.727Z,96.2
2022-08-28T00:38:20.022Z,96.4
2022-08-28T00:39:19.081Z,96.4
2022-08-28T00:40:16.656Z,96.5
2022-08-28T00:41:16.494Z,96.4
2022-08-28T00:42:16.534Z,96.5
2022-08-28T00:43:16.977Z,96.4
2022-08-28T00:44:16.437Z,96.2
2022-08-28T00:45:16.906Z,96.2
2022-08-28T00:46:17.392Z,96.2
2022-08-28T00:47:16.818Z,96.1
2022-08-28T00:48:17.269Z,96.3
2022-08-28T00:49:16.718Z,96.2
2022-08-28T00:50:17.128Z,96.2
2022-08-28T00:51:16.552Z,96.3
2022-08-28T00:52:17.319Z,96.3
2022-08-28T00:53:16.762Z,96.4
2022-08-28T00:54:17.222Z,96.4
2022-08-28T00:55:16.684Z,96.5
2022-08-28T00:56:17.159Z,96.4
2022-08-28T00:57:16.591Z,96.2
2022-08-28T00:58:17.075Z,96.3
2022-08-28T00:59:16.542Z,96.1
2022-08-28T01:00:16.960Z,96.3
2022-08-28T01:01:17.482Z,96.3
2022-08-28T01:02:17.186Z,96.3
2022-08-28T01:03:16.600Z,96.3
2022-08-28T01:04:17.027Z,96.4
2022-08-28T01:05:16.453Z,96.5
2022-08-28T01:06:16.914Z,96.4
2022-08-28T01:07:17.354Z,96.5
2022-08-28T01:08:18.798Z,96.4
2022-08-28T01:09:21.212Z,96.3
2022-08-28T01:10:16.708Z,96.3
2022-08-28T01:11:17.202Z,96.3
2022-08-28T01:12:16.787Z,96.3
2022-08-28T01:13:17.283Z,96.4
2022-08-28T01:14:16.773Z,96.3
2022-08-28T01:15:17.209Z,96.4
2022-08-28T01:16:16.824Z,96.4
2022-08-28T01:17:17.327Z,96.4
2022-08-28T01:18:17.175Z,96.3
2022-08-28T01:19:16.667Z,96.3
2022-08-28T01:20:17.100Z,96.2
2022-08-28T01:21:20.757Z,96.2
2022-08-28T01:22:16.499Z,96.1
2022-08-28T01:23:16.937Z,96.2
2022-08-28T01:24:17.392Z,96.1
2022-08-28T01:25:16.876Z,96.2
2022-08-28T01:26:17.351Z,96.2
2022-08-28T01:27:16.824Z,96.0
2022-08-28T01:28:17.290Z,96.1
2022-08-28T01:29:16.750Z,95.9
2022-08-28T01:30:17.176Z,95.9
2022-08-28T01:31:16.871Z,95.8
2022-08-28T01:32:16.555Z,95.8
2022-08-28T01:33:17.154Z,95.8
2022-08-28T01:34:16.579Z,96.0
2022-08-28T01:35:16.993Z,95.9
2022-08-28T01:36:16.424Z,95.9
2022-08-28T01:37:16.903Z,95.9
2022-08-28T01:38:21.463Z,95.8
2022-08-28T01:39:17.197Z,95.9
2022-08-28T01:40:16.803Z,95.9
2022-08-28T01:41:17.276Z,95.8
2022-08-28T01:42:16.486Z,95.9
2022-08-28T01:43:16.950Z,95.9
2022-08-28T01:44:18.411Z,96.0
2022-08-28T01:45:16.900Z,96.0
2022-08-28T01:46:17.535Z,96.0
2022-08-28T01:47:17.036Z,96.0
2022-08-28T01:48:16.461Z,96.2
2022-08-28T01:49:16.891Z,96.1
2022-08-28T01:50:17.339Z,96.0
2022-08-28T01:51:24.010Z,95.9
2022-08-28T01:52:16.835Z,95.9
2022-08-28T01:53:17.491Z,95.9
2022-08-28T01:54:16.764Z,95.9
2022-08-28T01:55:21.809Z,95.9
2022-08-28T01:56:17.266Z,95.9
2022-08-28T01:57:17.592Z,96.1
2022-08-28T01:58:17.143Z,96.2
2022-08-28T01:59:16.583Z,96.1
2022-08-28T02:00:17.043Z,96.0
2022-08-28T02:01:16.654Z,96.1
2022-08-28T02:02:17.047Z,96.0
2022-08-28T02:03:16.457Z,96.2
2022-08-28T02:04:17.042Z,96.2
2022-08-28T02:05:16.631Z,96.2
2022-08-28T02:06:17.049Z,96.2
2022-08-28T02:07:16.517Z,96.2
2022-08-28T02:08:16.984Z,96.2
2022-08-28T02:09:16.422Z,96.2
2022-08-28T02:10:16.883Z,96.1
2022-08-28T02:11:17.333Z,96.2
2022-08-28T02:12:16.816Z,96.2
2022-08-28T02:13:17.567Z,96.3
2022-08-28T02:14:16.984Z,96.5
2022-08-28T02:15:18.504Z,96.3
2022-08-28T02:16:17.059Z,96.2
2022-08-28T02:17:16.490Z,96.2
2022-08-28T02:18:16.939Z,96.2
2022-08-28T02:19:17.363Z,96.3
2022-08-28T02:20:16.831Z,96.2
2022-08-28T02:21:17.274Z,96.2
2022-08-28T02:22:16.954Z,96.1
2022-08-28T02:23:17.407Z,96.2
2022-08-28T02:24:16.853Z,96.3
2022-08-28T02:25:17.337Z,96.3
2022-08-28T02:26:16.783Z,96.4
2022-08-28T02:27:17.246Z,96.2
2022-08-28T02:28:16.735Z,96.2
2022-08-28T02:29:17.176Z,96.3
2022-08-28T02:30:16.626Z,96.2
2022-08-28T02:31:17.185Z,96.3
2022-08-28T02:32:16.752Z,96.3
2022-08-28T02:33:17.210Z,96.2
2022-08-28T02:34:16.634Z,96.3
2022-08-28T02:35:17.076Z,96.2
2022-08-28T02:36:16.576Z,96.3
2022-08-28T02:37:17.032Z,96.0
2022-08-28T02:38:18.992Z,96.1
2022-08-28T02:39:16.455Z,96.1
2022-08-28T02:40:17.074Z,96.1
2022-08-28T02:41:16.592Z,96.1
2022-08-28T02:42:19.525Z,96.0
2022-08-28T02:43:16.980Z,96.1
2022-08-28T02:44:16.408Z,96.2
2022-08-28T02:45:16.830Z,96.1
2022-08-28T02:46:17.374Z,95.9
2022-08-28T02:47:16.847Z,95.9
2022-08-28T02:48:17.906Z,95.7
2022-08-28T02:49:16.449Z,95.8
2022-08-28T02:50:16.874Z,95.5
2022-08-28T02:51:17.010Z,95.6
2022-08-28T02:52:17.375Z,95.7
2022-08-28T02:53:16.823Z,95.8
2022-08-28T02:54:18.729Z,96.0
2022-08-28T02:55:17.181Z,96.0
2022-08-28T02:56:16.631Z,95.8
2022-08-28T02:57:17.091Z,95.7
2022-08-28T02:58:16.531Z,95.7
2022-08-28T02:59:16.967Z,95.7
2022-08-28T03:00:17.411Z,95.7
2022-08-28T03:01:16.965Z,95.7
2022-08-28T03:02:17.279Z,95.7
2022-08-28T03:03:16.727Z,95.7
2022-08-28T03:04:17.171Z,95.7
2022-08-28T03:05:16.672Z,95.6
2022-08-28T03:06:17.110Z,95.5
2022-08-28T03:07:16.571Z,95.6
2022-08-28T03:08:17.032Z,95.6
2022-08-28T03:09:16.492Z,95.6
2022-08-28T03:10:16.930Z,95.6
2022-08-28T03:11:17.428Z,95.7
2022-08-28T03:12:16.761Z,95.7
2022-08-28T03:13:27.409Z,95.7
2022-08-28T03:14:16.902Z,95.7
2022-08-28T03:15:17.333Z,95.8
2022-08-28T03:16:16.842Z,95.9
2022-08-28T03:17:17.327Z,95.9
2022-08-28T03:18:18.377Z,95.7
2022-08-28T03:19:17.135Z,95.8
2022-08-28T03:20:16.598Z,95.7
2022-08-28T03:21:17.068Z,95.9
2022-08-28T03:22:16.735Z,95.8
2022-08-28T03:23:17.199Z,95.8
2022-08-28T03:24:16.635Z,95.8
2022-08-28T03:25:17.111Z,95.8
2022-08-28T03:26:16.566Z,95.8
2022-08-28T03:27:17.034Z,95.7
2022-08-28T03:28:16.462Z,95.6
2022-08-28T03:29:16.875Z,95.7
2022-08-28T03:30:17.325Z,95.5
2022-08-28T03:31:16.899Z,95.6
2022-08-28T03:32:17.138Z,95.6
2022-08-28T03:33:16.591Z,95.7
2022-08-28T03:34:17.010Z,95.6
2022-08-28T03:35:16.477Z,95.5
2022-08-28T03:36:16.891Z,95.5
2022-08-28T03:37:17.357Z,95.6
2022-08-28T03:38:16.801Z,95.4
2022-08-28T03:39:17.263Z,95.3
2022-08-28T03:40:16.914Z,95.1
2022-08-28T03:41:17.424Z,95.3
2022-08-28T03:42:16.523Z,95.3
2022-08-28T03:43:17.006Z,95.3
2022-08-28T03:44:16.460Z,95.5
2022-08-28T03:45:16.918Z,95.5
2022-08-28T03:46:17.578Z,95.4
2022-08-28T03:47:17.065Z,95.4
2022-08-28T03:48:16.539Z,95.5
2022-08-28T03:49:18.616Z,95.3
2022-08-28T03:50:17.960Z,95.2
2022-08-28T03:51:17.716Z,95.1
2022-08-28T03:52:16.811Z,95.1
2022-08-28T03:53:17.304Z,95.0
2022-08-28T03:54:16.788Z,95.1
2022-08-28T03:55:17.278Z,95.2
2022-08-28T03:56:16.726Z,95.3
2022-08-28T03:57:17.232Z,95.3
2022-08-28T03:58:19.308Z,95.2
2022-08-28T03:59:16.774Z,95.4
2022-08-28T04:00:17.203Z,95.3
2022-08-28T04:01:16.744Z,95.3
2022-08-28T04:02:16.566Z,95.2
2022-08-28T04:03:17.115Z,95.3
2022-08-28T04:04:16.530Z,95.2
2022-08-28T04:05:16.963Z,95.1
2022-08-28T04:06:17.412Z,94.9
2022-08-28T04:07:16.864Z,95.1
2022-08-28T04:08:17.369Z,95.1
2022-08-28T04:09:16.817Z,94.9
2022-08-28T04:10:17.270Z,95.2
2022-08-28T04:11:17.016Z,95.2
2022-08-28T04:12:16.450Z,95.5
2022-08-28T04:13:16.909Z,95.4
2022-08-28T04:14:17.337Z,95.5
2022-08-28T04:15:16.758Z,95.6
2022-08-28T04:16:17.336Z,95.5
2022-08-28T04:17:16.818Z,95.3
2022-08-28T04:18:17.257Z,95.4
2022-08-28T04:19:16.683Z,95.3
2022-08-28T04:20:17.121Z,95.5
2022-08-28T04:21:16.595Z,95.5
2022-08-28T04:22:18.004Z,95.5
2022-08-28T04:23:17.423Z,95.5
2022-08-28T04:24:16.883Z,95.5
2022-08-28T04:25:17.350Z,95.5
2022-08-28T04:26:16.825Z,95.6
2022-08-28T04:27:17.266Z,95.6
2022-08-28T04:28:16.712Z,95.3
2022-08-28T04:29:17.151Z,95.5
2022-08-28T04:30:16.568Z,95.5
2022-08-28T04:31:17.156Z,95.4
2022-08-28T04:32:16.898Z,95.5
2022-08-28T04:33:17.433Z,95.5
2022-08-28T04:34:16.862Z,95.4
2022-08-28T04:35:17.286Z,95.4
2022-08-28T04:36:16.732Z,95.5
2022-08-28T04:37:17.197Z,95.4
2022-08-28T04:38:16.682Z,95.4
2022-08-28T04:39:17.129Z,95.5
2022-08-28T04:40:16.753Z,95.5
2022-08-28T04:41:17.258Z,95.4
2022-08-28T04:42:16.433Z,95.3
2022-08-28T04:43:16.916Z,95.4
2022-08-28T04:44:17.169Z,95.4
2022-08-28T04:45:16.581Z,95.5
2022-08-28T04:46:17.097Z,95.5
2022-08-28T04:47:16.558Z,95.5
2022-08-28T04:48:17.492Z,95.5
2022-08-28T04:49:17.048Z,95.4
2022-08-28T04:50:16.479Z,95.4
2022-08-28T04:51:16.917Z,95.4
2022-08-28T04:52:16.573Z,95.2
2022-08-28T04:53:17.040Z,95.2
2022-08-28T04:54:16.493Z,95.2
2022-08-28T04:55:41.435Z,95.4
2022-08-28T04:56:16.472Z,95.3
2022-08-28T04:57:16.965Z,95.3
2022-08-28T04:58:18.619Z,95.3
2022-08-28T04:59:17.067Z,95.3
2022-08-28T05:00:16.485Z,95.2
2022-08-28T05:01:17.006Z,95.4
2022-08-28T05:02:17.339Z,95.4
2022-08-28T05:03:16.777Z,95.3
2022-08-28T05:04:17.203Z,95.4
2022-08-28T05:05:16.895Z,95.5
2022-08-28T05:06:17.012Z,95.4
2022-08-28T05:07:16.474Z,95.4
2022-08-28T05:08:16.949Z,95.4
2022-08-28T05:09:17.410Z,95.4
2022-08-28T05:10:16.896Z,95.4
2022-08-28T05:11:32.971Z,95.3
2022-08-28T05:12:16.629Z,95.4
2022-08-28T05:13:17.045Z,95.3
2022-08-28T05:14:16.666Z,95.3
2022-08-28T05:15:17.112Z,95.3
2022-08-28T05:16:16.651Z,95.3
2022-08-28T05:17:17.122Z,95.4
2022-08-28T05:18:16.577Z,95.4
2022-08-28T05:19:17.001Z,95.4
2022-08-28T05:20:16.444Z,95.1
2022-08-28T05:21:16.892Z,95.3
2022-08-28T05:22:16.488Z,95.3
2022-08-28T05:23:16.960Z,95.1
2022-08-28T05:24:17.407Z,95.0
2022-08-28T05:25:16.875Z,94.8
2022-08-28T05:26:17.336Z,94.9
2022-08-28T05:27:16.783Z,94.9
2022-08-28T05:28:17.217Z,94.7
2022-08-28T05:29:16.639Z,94.5
2022-08-28T05:30:17.066Z,94.6
2022-08-28T05:31:16.603Z,94.7
2022-08-28T05:32:17.219Z,94.7
2022-08-28T05:33:16.637Z,94.7
2022-08-28T05:34:17.068Z,94.6
2022-08-28T05:35:18.791Z,94.7
2022-08-28T05:36:17.295Z,94.6
2022-08-28T05:37:19.879Z,94.8
2022-08-28T05:38:17.378Z,94.8
2022-08-28T05:39:16.828Z,94.9
2022-08-28T05:40:17.473Z,94.9
2022-08-28T05:41:16.962Z,94.7
2022-08-28T05:42:17.324Z,94.5
2022-08-28T05:43:16.750Z,94.4
2022-08-28T05:44:17.165Z,94.5
2022-08-28T05:45:16.587Z,94.3
2022-08-28T05:46:17.173Z,94.3
2022-08-28T05:47:21.732Z,94.3
2022-08-28T05:48:17.157Z,94.3
2022-08-28T05:49:16.637Z,94.0
2022-08-28T05:50:17.087Z,94.1
2022-08-28T05:51:16.551Z,93.9
2022-08-28T05:52:17.014Z,93.9
2022-08-28T05:53:16.789Z,94.0
2022-08-28T05:54:17.238Z,93.9
2022-08-28T05:55:16.686Z,93.7
2022-08-28T05:56:17.143Z,93.7
2022-08-28T05:57:16.577Z,93.7
2022-08-28T05:58:17.010Z,93.7
2022-08-28T05:59:16.430Z,93.8
2022-08-28T06:00:16.832Z,93.5
2022-08-28T06:01:17.262Z,93.4
2022-08-28T06:02:16.744Z,93.1
2022-08-28T06:03:17.435Z,93.1
2022-08-28T06:04:16.987Z,93.1
2022-08-28T06:05:16.504Z,93.0
2022-08-28T06:06:16.946Z,93.4
2022-08-28T06:07:17.415Z,93.1
2022-08-28T06:08:16.876Z,93.1
2022-08-28T06:09:17.493Z,93.0
2022-08-28T06:10:18.521Z,93.0
2022-08-28T06:11:21.092Z,92.8
2022-08-28T06:12:18.179Z,92.6
2022-08-28T06:13:16.614Z,92.5
2022-08-28T06:14:18.292Z,92.2
2022-08-28T06:15:16.738Z,92.5
2022-08-28T06:16:17.234Z,92.3
2022-08-28T06:17:23.886Z,92.3
2022-08-28T06:18:16.496Z,92.1
2022-08-28T06:19:16.996Z,91.9
2022-08-28T06:20:16.488Z,91.9
2022-08-28T06:21:16.951Z,92.2
2022-08-28T06:22:17.222Z,92.1
2022-08-28T06:23:24.309Z,91.7
2022-08-28T06:24:16.748Z,91.5
2022-08-28T06:25:17.187Z,91.5
2022-08-28T06:26:16.617Z,91.1
2022-08-28T06:27:17.039Z,90.9
2022-08-28T06:28:16.451Z,90.8
2022-08-28T06:29:17.374Z,90.8
2022-08-28T06:30:16.827Z,90.6
2022-08-28T06:31:25.503Z,90.5
2022-08-28T06:32:17.206Z,90.4
2022-08-28T06:33:16.722Z,90.3
2022-08-28T06:34:17.157Z,90.2
2022-08-28T06:35:16.611Z,90.4
2022-08-28T06:36:17.103Z,90.3
2022-08-28T06:37:16.592Z,90.2
2022-08-28T06:38:17.010Z,90.1
2022-08-28T06:39:16.443Z,89.9
2022-08-28T06:40:17.000Z,90.0
2022-08-28T06:41:16.512Z,90.1
2022-08-28T06:42:16.722Z,89.8
2022-08-28T06:43:17.135Z,89.5
2022-08-28T06:44:16.579Z,89.1
2022-08-28T06:45:17.094Z,89.3
2022-08-28T06:46:16.728Z,89.7
2022-08-28T06:47:17.268Z,89.9
2022-08-28T06:48:16.741Z,89.8
2022-08-28T06:49:17.182Z,89.5
2022-08-28T06:50:16.633Z,89.1
2022-08-28T06:51:17.089Z,89.5
2022-08-28T06:52:16.632Z,89.6
2022-08-28T06:53:17.059Z,89.4
2022-08-28T06:54:23.373Z,89.4
2022-08-28T06:55:16.971Z,89.4
2022-08-28T06:56:27.195Z,89.0
2022-08-28T06:57:16.714Z,89.1
2022-08-28T06:58:17.143Z,88.8
2022-08-28T06:59:16.562Z,88.9
2022-08-28T07:00:16.999Z,88.5
2022-08-28T07:01:16.483Z,88.6
2022-08-28T07:02:17.443Z,88.8
2022-08-28T07:03:17.872Z,88.3
2022-08-28T07:04:16.521Z,88.5
2022-08-28T07:05:17.010Z,88.4
2022-08-28T07:06:16.445Z,88.2
2022-08-28T07:07:31.045Z,88.2
2022-08-28T07:08:17.307Z,87.9
2022-08-28T07:09:16.757Z,88.3
2022-08-28T07:10:17.166Z,88.2
2022-08-28T07:11:16.595Z,88.4
2022-08-28T07:12:17.043Z,88.1
2022-08-28T07:13:16.487Z,88.0
2022-08-28T07:14:16.971Z,87.9
2022-08-28T07:15:17.438Z,88.2
2022-08-28T07:16:16.977Z,88.2
2022-08-28T07:17:16.462Z,87.9
2022-08-28T07:18:16.906Z,88.2
2022-08-28T07:19:17.360Z,88.8
2022-08-28T07:20:16.864Z,88.8
2022-08-28T07:21:17.337Z,88.7
2022-08-28T07:22:16.942Z,88.4
2022-08-28T07:23:17.430Z,88.3
2022-08-28T07:24:16.861Z,88.1
2022-08-28T07:25:18.820Z,88.0
2022-08-28T07:26:16.965Z,88.1
2022-08-28T07:27:19.320Z,88.2
2022-08-28T07:28:16.758Z,88.2
2022-08-28T07:29:17.221Z,87.4
2022-08-28T07:30:16.676Z,87.0
2022-08-28T07:31:17.328Z,86.9
2022-08-28T07:32:16.429Z,86.0
2022-08-28T07:33:16.870Z,85.5
2022-08-28T07:34:17.334Z,85.9
2022-08-28T07:35:17.108Z,86.6
2022-08-28T07:36:29.485Z,86.6
2022-08-28T07:37:16.400Z,86.0
2022-08-28T07:38:16.834Z,86.6
2022-08-28T07:39:17.277Z,86.8
2022-08-28T07:40:16.908Z,86.6
2022-08-28T07:41:17.367Z,86.5
2022-08-28T07:42:16.984Z,86.5
2022-08-28T07:43:16.410Z,86.8
2022-08-28T07:44:16.889Z,87.0
2022-08-28T07:45:17.361Z,86.4
2022-08-28T07:46:17.011Z,86.0
2022-08-28T07:47:16.515Z,86.3
2022-08-28T07:48:21.456Z,86.2
2022-08-28T07:49:16.914Z,86.3
2022-08-28T07:50:17.363Z,85.7
2022-08-28T07:51:16.784Z,86.1
2022-08-28T07:52:16.454Z,85.7
2022-08-28T07:53:16.881Z,85.3
2022-08-28T07:54:18.503Z,85.5
2022-08-28T07:55:16.910Z,85.3
2022-08-28T07:56:17.337Z,85.0
2022-08-28T07:57:16.762Z,84.9
2022-08-28T07:58:17.216Z,85.0
2022-08-28T07:59:17.549Z,84.4
2022-08-28T08:00:16.858Z,83.9
2022-08-28T08:01:17.509Z,84.2
2022-08-28T08:02:17.043Z,84.4
2022-08-28T08:03:16.681Z,83.9
2022-08-28T08:04:17.225Z,83.8
2022-08-28T08:05:16.699Z,83.3
2022-08-28T08:06:17.115Z,83.5
2022-08-28T08:07:16.587Z,83.7
2022-08-28T08:08:16.996Z,83.9
2022-08-28T08:09:16.456Z,82.9
2022-08-28T08:10:20.850Z,83.9
2022-08-28T08:11:17.345Z,83.7
2022-08-28T08:12:17.155Z,83.7
2022-08-28T08:13:17.211Z,82.8
2022-08-28T08:14:16.654Z,83.1
2022-08-28T08:15:17.104Z,83.5
2022-08-28T08:16:16.665Z,84.4
2022-08-28T08:17:17.162Z,84.1
2022-08-28T08:18:18.895Z,83.5
2022-08-28T08:19:16.779Z,83.0
2022-08-28T08:20:17.210Z,81.9
2022-08-28T08:21:16.634Z,81.9
2022-08-28T08:22:16.540Z,80.5
2022-08-28T08:23:16.945Z,80.9
2022-08-28T08:24:20.170Z,80.5
2022-08-28T08:25:16.645Z,81.1
2022-08-28T08:26:17.091Z,80.8
2022-08-28T08:27:16.518Z,80.5
2022-08-28T08:28:16.989Z,80.8
2022-08-28T08:29:16.459Z,80.7
2022-08-28T08:30:16.912Z,80.0
2022-08-28T08:31:17.512Z,78.7
2022-08-28T08:32:16.911Z,78.9
2022-08-28T08:33:17.394Z,78.9
2022-08-28T08:34:16.873Z,78.8
2022-08-28T08:35:17.302Z,79.0
2022-08-28T08:36:16.713Z,78.9
2022-08-28T08:37:17.159Z,77.7
2022-08-28T08:38:16.792Z,76.1
2022-08-28T08:39:18.424Z,75.1
2022-08-28T08:40:17.283Z,74.7
2022-08-28T08:41:16.744Z,75.1
2022-08-28T08:42:16.966Z,75.5
2022-08-28T08:43:17.451Z,75.0
2022-08-28T08:44:16.920Z,75.5
2022-08-28T08:45:17.367Z,77.2
2022-08-28T08:46:16.941Z,77.6
2022-08-28T08:47:16.418Z,77.0
2022-08-28T08:48:16.894Z,76.1
2022-08-28T08:49:17.338Z,76.4
2022-08-28T08:50:16.769Z,77.0
2022-08-28T08:51:17.199Z,77.7
2022-08-28T08:52:16.607Z,77.7
2022-08-28T08:53:17.063Z,77.7
2022-08-28T08:54:16.475Z,78.0
2022-08-28T08:55:17.119Z,78.4
2022-08-28T08:56:16.537Z,78.1
2022-08-28T08:57:17.006Z,77.0
2022-08-28T08:58:16.467Z,76.8
2022-08-28T08:59:16.936Z,76.2
2022-08-28T09:00:17.425Z,75.0
2022-08-28T09:01:16.989Z,74.8
2022-08-28T09:02:16.574Z,74.9
2022-08-28T09:03:17.121Z,74.9
2022-08-28T09:04:21.779Z,74.7
2022-08-28T09:05:17.251Z,74.7
2022-08-28T09:06:16.671Z,74.6
2022-08-28T09:07:17.107Z,74.7
2022-08-28T09:08:16.539Z,74.4
2022-08-28T09:09:16.962Z,73.6
2022-08-28T09:10:17.384Z,74.2
2022-08-28T09:11:16.810Z,74.3
2022-08-28T09:12:17.259Z,74.7
2022-08-28T09:13:16.705Z,75.0
2022-08-28T09:14:20.646Z,74.6
2022-08-28T09:15:17.357Z,74.8
2022-08-28T09:16:16.969Z,75.6
2022-08-28T09:17:16.534Z,75.5
2022-08-28T09:18:17.001Z,75.2
2022-08-28T09:19:16.447Z,74.1
2022-08-28T09:20:16.897Z,73.9
2022-08-28T09:21:17.309Z,74.9
2022-08-28T09:22:17.209Z,73.8
2022-08-28T09:23:16.625Z,74.7
2022-08-28T09:24:18.843Z,74.7
2022-08-28T09:25:18.595Z,75.0
2022-08-28T09:26:17.011Z,75.1
2022-08-28T09:27:16.543Z,75.6
2022-08-28T09:28:17.015Z,75.4
2022-08-28T09:29:16.483Z,75.1
2022-08-28T09:30:16.926Z,74.9
2022-08-28T09:31:20.398Z,74.7
2022-08-28T09:32:16.936Z,74.6
2022-08-28T09:33:17.432Z,74.6
2022-08-28T09:34:16.861Z,75.1
2022-08-28T09:35:17.270Z,75.2
2022-08-28T09:36:16.696Z,74.3
2022-08-28T09:37:17.123Z,73.7
2022-08-28T09:38:16.536Z,74.2
2022-08-28T09:39:16.954Z,74.0
2022-08-28T09:40:17.599Z,74.4
2022-08-28T09:41:17.110Z,72.8
2022-08-28T09:42:16.682Z,72.6
2022-08-28T09:43:17.125Z,72.5
2022-08-28T09:44:16.587Z,72.3
2022-08-28T09:45:17.880Z,71.6
2022-08-28T09:46:17.530Z,71.2
2022-08-28T09:47:17.027Z,71.1
2022-08-28T09:48:16.495Z,71.8
2022-08-28T09:49:16.915Z,71.8
2022-08-28T09:50:17.374Z,72.0
2022-08-28T09:51:16.795Z,70.9
2022-08-28T09:52:16.535Z,71.4
2022-08-28T09:53:16.967Z,71.6
2022-08-28T09:54:17.386Z,72.1
2022-08-28T09:55:16.793Z,71.9
2022-08-28T09:56:17.222Z,72.1
2022-08-28T09:57:16.694Z,71.9
2022-08-28T09:58:17.131Z,71.9
2022-08-28T09:59:16.590Z,70.3
2022-08-28T10:00:17.062Z,68.0
2022-08-28T10:01:16.626Z,68.6
2022-08-28T10:02:17.256Z,66.3
2022-08-28T10:03:16.696Z,66.1
2022-08-28T10:04:17.278Z,65.3
2022-08-28T10:05:17.624Z,63.9
2022-08-28T10:06:16.974Z,62.6
2022-08-28T10:07:17.398Z,62.3
2022-08-28T10:08:16.814Z,61.4
2022-08-28T10:09:17.282Z,62.0
2022-08-28T10:10:18.078Z,60.9
2022-08-28T10:11:16.525Z,61.8
2022-08-28T10:12:16.793Z,62.5
2022-08-28T10:13:17.265Z,65.2
2022-08-28T10:14:16.729Z,64.8
2022-08-28T10:15:17.201Z,64.5
2022-08-28T10:16:16.946Z,64.7
2022-08-28T10:17:19.034Z,66.4
2022-08-28T10:18:17.167Z,66.4
2022-08-28T10:19:16.752Z,65.5
2022-08-28T10:20:17.204Z,65.5
2022-08-28T10:21:16.649Z,64.9
2022-08-28T10:22:17.261Z,64.6
2022-08-28T10:23:17.957Z,64.7
2022-08-28T10:24:28.767Z,63.6
2022-08-28T10:25:16.659Z,63.6
2022-08-28T10:26:17.155Z,63.7
2022-08-28T10:27:16.595Z,63.6
2022-08-28T10:28:17.459Z,62.0
2022-08-28T10:29:17.000Z,60.4
2022-08-28T10:30:16.476Z,60.4
2022-08-28T10:31:17.090Z,60.8
2022-08-28T10:32:17.308Z,61.3
2022-08-28T10:33:16.741Z,60.5
2022-08-28T10:34:17.154Z,61.9
2022-08-28T10:35:16.612Z,63.3
2022-08-28T10:36:33.331Z,63.2
2022-08-28T10:37:16.461Z,63.6
2022-08-28T10:38:16.890Z,65.1
2022-08-28T10:39:17.319Z,64.0
2022-08-28T10:40:16.864Z,65.5
2022-08-28T10:41:17.354Z,66.9
2022-08-28T10:42:17.074Z,66.2
2022-08-28T10:43:16.515Z,63.6
2022-08-28T10:44:16.975Z,64.0
2022-08-28T10:45:17.466Z,64.7
2022-08-28T10:46:17.053Z,65.2
2022-08-28T10:47:16.526Z,65.2
2022-08-28T10:48:16.955Z,65.5
2022-08-28T10:49:17.373Z,64.0
2022-08-28T10:50:16.802Z,63.4
2022-08-28T10:51:17.262Z,63.4
2022-08-28T10:52:16.808Z,62.7
2022-08-28T10:53:17.286Z,61.0
2022-08-28T10:54:16.710Z,61.4
2022-08-28T10:55:17.138Z,60.0
2022-08-28T10:56:16.600Z,60.2
2022-08-28T10:57:17.060Z,61.4
2022-08-28T10:58:25.492Z,62.1
2022-08-28T10:59:17.131Z,63.3
2022-08-28T11:00:16.576Z,64.2
2022-08-28T11:01:17.090Z,64.1
2022-08-28T11:02:16.766Z,63.7
2022-08-28T11:03:34.220Z,64.4
2022-08-28T11:04:25.561Z,64.4
2022-08-28T11:05:17.189Z,63.6
2022-08-28T11:06:16.642Z,65.1
2022-08-28T11:07:17.062Z,64.4
2022-08-28T11:08:16.479Z,64.7
2022-08-28T11:09:16.894Z,65.6
2022-08-28T11:10:17.358Z,66.5
2022-08-28T11:11:16.819Z,64.4
2022-08-28T11:12:16.906Z,63.3
2022-08-28T11:13:17.377Z,62.6
2022-08-28T11:14:16.849Z,62.8
2022-08-28T11:15:17.302Z,62.6
2022-08-28T11:16:16.836Z,62.3
2022-08-28T11:17:18.051Z,63.0
2022-08-28T11:18:16.521Z,62.7
2022-08-28T11:19:16.947Z,63.2
2022-08-28T11:20:17.385Z,64.1
2022-08-28T11:21:16.811Z,65.0
2022-08-28T11:22:17.788Z,65.0
2022-08-28T11:23:18.495Z,65.9
2022-08-28T11:24:18.744Z,66.0
2022-08-28T11:25:17.079Z,65.4
2022-08-28T11:26:16.929Z,65.4
2022-08-28T11:27:16.716Z,65.5
2022-08-28T11:28:17.164Z,64.9
2022-08-28T11:29:16.609Z,64.9
2022-08-28T11:30:17.067Z,65.4
2022-08-28T11:31:29.275Z,66.1
2022-08-28T11:32:17.033Z,66.2
2022-08-28T11:33:16.459Z,65.4
2022-08-28T11:34:16.898Z,67.3
2022-08-28T11:35:17.339Z,67.3
2022-08-28T11:36:16.775Z,67.3
2022-08-28T11:37:17.211Z,67.6
2022-08-28T11:38:20.167Z,67.6
2022-08-28T11:39:16.666Z,66.2
2022-08-28T11:40:17.302Z,68.1
2022-08-28T11:41:16.833Z,67.5
2022-08-28T11:42:17.082Z,68.7
2022-08-28T11:43:17.219Z,69.2
2022-08-28T11:44:16.695Z,69.2
2022-08-28T11:45:17.162Z,68.8
2022-08-28T11:46:23.906Z,69.9
2022-08-28T11:47:16.458Z,68.6
2022-08-28T11:48:16.878Z,68.2
2022-08-28T11:49:17.291Z,69.0
2022-08-28T11:50:16.723Z,70.2
2022-08-28T11:51:17.145Z,69.6
2022-08-28T11:52:16.600Z,70.4
2022-08-28T11:53:17.051Z,70.1
2022-08-28T11:54:16.536Z,69.6
2022-08-28T11:55:17.033Z,69.5
2022-08-28T11:56:30.541Z,69.8
2022-08-28T11:57:16.821Z,68.8
2022-08-28T11:58:17.297Z,69.0
2022-08-28T11:59:16.946Z,69.0
2022-08-28T12:00:17.427Z,69.4
2022-08-28T12:01:16.868Z,69.3
2022-08-28T12:02:17.003Z,68.6
2022-08-28T12:03:16.441Z,68.6
2022-08-28T12:04:16.975Z,69.6
2022-08-28T12:05:16.460Z,70.5
2022-08-28T12:06:16.874Z,70.5
2022-08-28T12:07:17.327Z,69.9
2022-08-28T12:08:16.771Z,69.4
2022-08-28T12:09:17.217Z,68.4
2022-08-28T12:10:16.681Z,68.6
2022-08-28T12:11:17.143Z,68.6
2022-08-28T12:12:16.677Z,68.7
2022-08-28T12:13:17.146Z,69.8
2022-08-28T12:14:16.589Z,68.7
2022-08-28T12:15:17.010Z,68.4
2022-08-28T12:16:16.526Z,68.4
2022-08-28T12:17:16.987Z,68.2
2022-08-28T12:18:16.411Z,69.4
2022-08-28T12:19:16.829Z,68.0
2022-08-28T12:20:17.265Z,68.9
2022-08-28T12:21:16.736Z,69.2
2022-08-28T12:22:16.965Z,67.5
2022-08-28T12:23:16.493Z,69.0
2022-08-28T12:24:16.943Z,70.3
2022-08-28T12:25:17.669Z,70.7
2022-08-28T12:26:17.124Z,69.7
2022-08-28T12:27:16.619Z,69.5
2022-08-28T12:28:17.059Z,69.3
2022-08-28T12:29:16.781Z,68.6
2022-08-28T12:30:17.259Z,68.6
2022-08-28T12:31:16.797Z,68.8
2022-08-28T12:32:17.076Z,69.2
2022-08-28T12:33:16.563Z,68.3
2022-08-28T12:34:16.979Z,68.7
2022-08-28T12:35:17.394Z,69.1
2022-08-28T12:36:16.867Z,68.8
2022-08-28T12:37:17.324Z,68.6
2022-08-28T12:38:16.782Z,69.0
2022-08-28T12:39:17.250Z,68.3
2022-08-28T12:40:16.831Z,67.8
2022-08-28T12:41:18.083Z,67.9
2022-08-28T12:42:16.730Z,68.2
2022-08-28T12:43:17.212Z,68.3
2022-08-28T12:44:16.693Z,68.5
2022-08-28T12:45:17.623Z,67.4
2022-08-28T12:46:20.239Z,67.4
2022-08-28T12:47:16.742Z,66.9
2022-08-28T12:48:17.182Z,66.8
2022-08-28T12:49:16.625Z,66.9
2022-08-28T12:50:17.032Z,67.2
2022-08-28T12:51:16.459Z,66.3
2022-08-28T12:52:17.378Z,66.4
2022-08-28T12:53:16.827Z,66.3
2022-08-28T12:54:17.287Z,66.7
2022-08-28T12:55:17.462Z,66.0
2022-08-28T12:56:17.038Z,66.5
2022-08-28T12:57:16.490Z,65.9
2022-08-28T12:58:16.942Z,66.7
2022-08-28T12:59:17.370Z,65.4
2022-08-28T13:00:16.834Z,64.8
2022-08-28T13:01:17.468Z,65.2
2022-08-28T13:02:17.103Z,65.1
2022-08-28T13:03:16.593Z,64.7
2022-08-28T13:04:17.006Z,64.6
2022-08-28T13:05:16.442Z,65.0
2022-08-28T13:06:16.883Z,64.9
2022-08-28T13:07:17.369Z,65.6
2022-08-28T13:08:16.833Z,64.7
2022-08-28T13:09:17.267Z,64.8
2022-08-28T13:10:16.711Z,65.5
2022-08-28T13:11:17.152Z,64.6
2022-08-28T13:12:17.156Z,64.5
2022-08-28T13:13:16.907Z,64.7
2022-08-28T13:14:17.386Z,65.4
2022-08-28T13:15:24.579Z,65.0
2022-08-28T13:16:17.106Z,64.0
2022-08-28T13:17:16.576Z,65.4
2022-08-28T13:18:17.002Z,64.9